Terminal Aerodrome Forecast
Issued by NWS San Angelo, TX

Home | Current Version | Previous Version | Text Only | Print | Product List | Glossary On
Versions: 1 2 3 4 5 6 7 8 9 10 11 12 13 14 15 16 17 18 19 20 21
000
FTUS44 KSJT 251700
TAFSJT
TAF
KSJT 251720Z 2518/2618 15006KT P6SM VCTS SCT040CB BKN080
     FM252000 25016G24KT P6SM FEW040
     FM260000 VRB06KT P6SM SKC
     FM261100 19012G20KT P6SM BKN018
     FM261500 19012G20KT P6SM FEW050=

USA.gov is the U.S. government's official web portal to all federal, state and local government web resources and services.